createdAt,value
2019-01-08T00:02:11.987Z,8.33
2019-01-08T00:07:22.191Z,8.33
2019-01-08T00:12:37.348Z,8.37
2019-01-08T00:17:45.925Z,8.30
2019-01-08T00:22:53.861Z,8.33
2019-01-08T00:28:04.071Z,8.20
2019-01-08T00:33:12.935Z,8.08
2019-01-08T00:38:26.404Z,8.01
2019-01-08T00:43:33.452Z,7.94
2019-01-08T00:48:41.379Z,7.79
2019-01-08T00:53:49.236Z,7.53
2019-01-08T00:58:57.926Z,7.46
2019-01-08T01:04:03.352Z,7.36
2019-01-08T01:09:09.936Z,7.34
2019-01-08T01:14:16.290Z,7.26
2019-01-08T01:19:22.980Z,7.24
2019-01-08T01:24:30.370Z,7.20
2019-01-08T01:29:39.054Z,7.20
2019-01-08T01:34:45.912Z,7.09
2019-01-08T01:39:55.452Z,7.08
2019-01-08T01:45:04.954Z,7.08
2019-01-08T01:50:13.613Z,7.01
2019-01-08T01:55:22.434Z,6.94
2019-01-08T02:00:41.695Z,7.01
2019-01-08T02:05:51.053Z,7.01
2019-01-08T02:11:00.127Z,6.98
2019-01-08T02:16:10.093Z,6.91
2019-01-08T02:21:20.712Z,7.04
2019-01-08T02:26:29.092Z,7.23
2019-01-08T02:31:38.857Z,7.17
2019-01-08T02:36:51.366Z,7.04
2019-01-08T02:42:02.590Z,7.12
2019-01-08T02:47:10.594Z,7.02
2019-01-08T02:52:23.180Z,7.12
2019-01-08T02:57:32.837Z,6.94
2019-01-08T03:02:40.991Z,6.98
2019-01-08T03:07:53.412Z,7.10
2019-01-08T03:13:07.726Z,7.11
2019-01-08T03:18:20.909Z,7.19
2019-01-08T03:23:34.308Z,7.19
2019-01-08T03:28:46.249Z,7.06
2019-01-08T03:33:55.403Z,7.14
2019-01-08T03:39:07.042Z,7.08
2019-01-08T03:44:15.432Z,6.99
2019-01-08T03:49:25.157Z,6.91
2019-01-08T03:54:33.523Z,7.02
2019-01-08T03:59:44.162Z,7.01
2019-01-08T04:04:55.011Z,7.15
2019-01-08T04:10:06.594Z,7.15
2019-01-08T04:15:17.315Z,7.18
2019-01-08T04:20:26.516Z,7.31
2019-01-08T04:25:37.253Z,7.23
2019-01-08T04:30:55.699Z,7.34
2019-01-08T04:36:06.409Z,7.31
2019-01-08T04:41:17.026Z,7.16
2019-01-08T04:46:29.478Z,7.18
2019-01-08T04:51:45.239Z,7.12
2019-01-08T04:56:57.849Z,7.05
2019-01-08T05:02:09.472Z,7.02
2019-01-08T05:07:17.860Z,7.01
2019-01-08T05:12:26.695Z,7.04
2019-01-08T05:17:36.597Z,6.99
2019-01-08T05:22:47.291Z,6.99
2019-01-08T05:27:55.815Z,7.04
2019-01-08T05:33:08.296Z,7.14
2019-01-08T05:38:15.528Z,7.20
2019-01-08T05:43:24.615Z,7.03
2019-01-08T05:48:36.994Z,6.79
2019-01-08T05:53:49.218Z,6.52
2019-01-08T05:58:59.940Z,6.39
2019-01-08T06:04:12.438Z,6.28
2019-01-08T06:10:22.343Z,6.13
2019-01-08T06:15:29.797Z,6.10
2019-01-08T06:20:41.290Z,6.28
2019-01-08T06:25:55.503Z,6.28
2019-01-08T06:31:14.298Z,6.32
2019-01-08T06:36:26.251Z,6.39
2019-01-08T06:41:34.586Z,6.40
2019-01-08T06:46:45.597Z,6.44
2019-01-08T06:51:53.863Z,6.66
2019-01-08T06:57:02.716Z,6.45
2019-01-08T07:02:09.935Z,6.36
2019-01-08T07:07:16.600Z,6.34
2019-01-08T07:12:29.990Z,6.19
2019-01-08T07:17:44.258Z,6.27
2019-01-08T07:22:53.399Z,6.21
2019-01-08T07:28:01.643Z,6.44
2019-01-08T07:33:10.905Z,6.64
2019-01-08T07:38:22.404Z,6.75
2019-01-08T07:43:34.864Z,6.69
2019-01-08T07:48:44.578Z,6.58
2019-01-08T07:53:52.130Z,6.52
2019-01-08T07:59:02.474Z,6.54
2019-01-08T08:04:16.571Z,6.56
2019-01-08T08:09:26.895Z,6.56
2019-01-08T08:14:38.506Z,6.68
2019-01-08T08:19:52.648Z,6.68
2019-01-08T08:25:09.608Z,6.71
2019-01-08T08:30:19.496Z,6.67
2019-01-08T08:35:31.844Z,6.78
2019-01-08T08:40:42.206Z,6.67
2019-01-08T08:45:56.869Z,6.65
2019-01-08T08:51:06.242Z,6.67
2019-01-08T08:56:14.803Z,6.55
2019-01-08T09:01:27.331Z,6.65
2019-01-08T09:06:38.020Z,6.68
2019-01-08T09:11:46.831Z,6.84
2019-01-08T09:16:57.561Z,6.95
2019-01-08T09:22:08.166Z,7.05
2019-01-08T09:27:20.579Z,7.10
2019-01-08T09:32:31.267Z,7.18
2019-01-08T09:37:41.075Z,7.26
2019-01-08T09:42:49.365Z,7.38
2019-01-08T09:48:00.980Z,7.51
2019-01-08T09:53:11.414Z,7.30
2019-01-08T09:58:25.731Z,7.30
2019-01-08T10:03:38.180Z,7.28
2019-01-08T10:08:48.323Z,7.52
2019-01-08T10:13:57.765Z,7.49
2019-01-08T10:19:07.495Z,7.50
2019-01-08T10:24:15.768Z,7.56
2019-01-08T10:29:24.113Z,7.74
2019-01-08T10:34:30.815Z,7.88
2019-01-08T10:39:39.654Z,8.10
2019-01-08T10:44:48.529Z,8.00
2019-01-08T10:49:58.277Z,7.91
2019-01-08T10:55:12.133Z,7.83
2019-01-08T11:00:23.636Z,7.75
2019-01-08T11:05:31.065Z,7.63
2019-01-08T11:10:40.100Z,7.72
2019-01-08T11:15:52.514Z,7.67
2019-01-08T11:21:01.053Z,7.63
2019-01-08T11:26:08.968Z,7.40
2019-01-08T11:31:19.940Z,7.49
2019-01-08T11:36:27.640Z,7.64
2019-01-08T11:41:38.933Z,7.61
2019-01-08T11:46:48.857Z,7.70
2019-01-08T11:51:59.113Z,8.73
2019-01-08T11:57:09.539Z,8.42
2019-01-08T12:02:19.296Z,8.33
2019-01-08T12:07:31.343Z,8.59
2019-01-08T12:12:47.871Z,8.73
2019-01-08T12:17:56.072Z,8.66
2019-01-08T12:23:03.871Z,8.75
2019-01-08T12:28:11.874Z,8.59
2019-01-08T12:33:19.008Z,7.85
2019-01-08T12:38:26.601Z,7.59
2019-01-08T12:43:36.102Z,7.65
2019-01-08T12:48:43.045Z,7.66
2019-01-08T12:53:53.442Z,7.64
2019-01-08T12:59:00.985Z,7.73
2019-01-08T13:04:10.476Z,7.91
2019-01-08T13:09:19.973Z,8.12
2019-01-08T13:14:28.099Z,8.45
2019-01-08T13:19:36.002Z,8.33
2019-01-08T13:24:43.978Z,8.22
2019-01-08T13:29:50.235Z,8.25
2019-01-08T13:34:57.049Z,8.17
2019-01-08T13:40:03.501Z,8.30
2019-01-08T13:45:14.911Z,8.96
2019-01-08T13:50:23.553Z,9.36
2019-01-08T13:55:31.780Z,8.86
2019-01-08T14:00:40.709Z,8.45
2019-01-08T14:05:48.687Z,8.17
2019-01-08T14:10:58.408Z,7.96
2019-01-08T14:16:07.937Z,8.14
2019-01-08T14:21:15.418Z,8.25
2019-01-08T14:26:23.157Z,8.17
2019-01-08T14:31:32.068Z,8.15
2019-01-08T14:36:40.707Z,8.03
2019-01-08T14:41:48.896Z,8.03
2019-01-08T14:46:57.597Z,7.98
2019-01-08T14:52:08.133Z,7.97
2019-01-08T14:57:20.468Z,7.88
2019-01-08T15:02:29.789Z,7.79
2019-01-08T15:07:41.253Z,7.73
2019-01-08T15:12:50.404Z,7.71
2019-01-08T15:18:02.055Z,7.75
2019-01-08T15:23:15.683Z,7.55
2019-01-08T15:28:27.296Z,7.33
2019-01-08T15:33:37.071Z,7.38
2019-01-08T15:38:45.867Z,7.40
2019-01-08T15:43:58.344Z,7.40
2019-01-08T15:49:09.945Z,7.47
2019-01-08T15:54:17.348Z,7.28
2019-01-08T15:59:29.730Z,7.18
2019-01-08T16:04:42.274Z,7.23
2019-01-08T16:09:54.692Z,7.27
2019-01-08T16:15:03.589Z,7.30
2019-01-08T16:20:13.504Z,7.31
2019-01-08T16:25:22.964Z,7.34
2019-01-08T16:30:33.735Z,7.22
2019-01-08T16:35:46.084Z,7.19
2019-01-08T16:40:56.120Z,7.27
2019-01-08T16:46:06.853Z,7.20
2019-01-08T16:51:17.478Z,7.15
2019-01-08T16:56:30.893Z,7.16
2019-01-08T17:01:43.368Z,7.19
2019-01-08T17:06:56.839Z,7.09
2019-01-08T17:12:06.126Z,7.12
2019-01-08T17:17:18.573Z,7.19
2019-01-08T17:22:26.495Z,7.12
2019-01-08T17:27:36.518Z,7.10
2019-01-08T17:32:45.405Z,7.03
2019-01-08T17:37:55.202Z,6.94
2019-01-08T17:43:04.966Z,7.05
2019-01-08T17:48:18.370Z,7.02
2019-01-08T17:53:26.738Z,7.00
2019-01-08T17:58:49.572Z,7.05
2019-01-08T18:03:59.418Z,7.01
2019-01-08T18:14:43.270Z,7.06
2019-01-08T18:19:52.434Z,6.92
2019-01-08T18:24:59.607Z,6.81
2019-01-08T18:30:10.283Z,6.79
2019-01-08T18:35:24.516Z,6.71
2019-01-08T18:40:32.739Z,6.63
2019-01-08T18:45:43.140Z,6.64
2019-01-08T18:50:50.742Z,6.64
2019-01-08T18:55:58.009Z,6.61
2019-01-08T19:01:07.800Z,6.60
2019-01-08T19:06:17.987Z,6.77
2019-01-08T19:11:25.532Z,6.94
2019-01-08T19:16:34.602Z,6.78
2019-01-08T19:21:45.309Z,6.69
2019-01-08T19:26:59.574Z,6.61
2019-01-08T19:32:09.287Z,6.55
2019-01-08T19:37:19.010Z,6.52
2019-01-08T19:42:29.155Z,6.52
2019-01-08T19:47:40.896Z,6.60
2019-01-08T19:52:54.355Z,6.26
2019-01-08T19:58:06.809Z,5.94
2019-01-08T20:03:16.554Z,5.45
2019-01-08T20:08:30.583Z,5.37
2019-01-08T20:13:38.890Z,5.24
2019-01-08T20:18:49.860Z,5.10
2019-01-08T20:24:06.393Z,5.11
2019-01-08T20:29:13.187Z,5.12
2019-01-08T20:34:26.633Z,5.32
2019-01-08T20:39:33.827Z,5.38
2019-01-08T20:44:41.829Z,5.34
2019-01-08T20:49:51.278Z,5.38
2019-01-08T20:55:03.391Z,5.37
2019-01-08T21:00:10.837Z,5.38
2019-01-08T21:05:19.827Z,5.23
2019-01-08T21:10:28.949Z,5.09
2019-01-08T21:15:37.151Z,5.00
2019-01-08T21:20:45.347Z,5.08
2019-01-08T21:26:01.635Z,5.21
2019-01-08T21:31:10.691Z,5.27
2019-01-08T21:36:19.294Z,5.28
2019-01-08T21:41:28.855Z,5.22
2019-01-08T21:46:37.412Z,5.30
2019-01-08T21:51:45.991Z,5.24
2019-01-08T21:56:57.580Z,5.23
2019-01-08T22:02:11.255Z,5.17
2019-01-08T22:07:19.658Z,5.07
2019-01-08T22:12:32.102Z,4.98
2019-01-08T22:17:41.872Z,4.84
2019-01-08T22:22:53.050Z,4.80
2019-01-08T22:28:04.295Z,4.76
2019-01-08T22:33:17.864Z,4.80
2019-01-08T22:38:28.103Z,4.92
2019-01-08T22:43:37.193Z,5.01
2019-01-08T22:48:52.997Z,5.06
2019-01-08T22:54:06.402Z,4.99
2019-01-08T22:59:18.404Z,4.92
2019-01-08T23:04:29.168Z,4.84
2019-01-08T23:09:39.173Z,4.83
2019-01-08T23:14:48.932Z,4.89
2019-01-08T23:20:02.403Z,4.92
2019-01-08T23:25:15.790Z,4.90
2019-01-08T23:30:25.479Z,4.81
2019-01-08T23:35:34.436Z,4.83
2019-01-08T23:40:45.998Z,4.76
2019-01-08T23:45:58.552Z,4.80
2019-01-08T23:51:11.046Z,4.80
2019-01-08T23:56:23.084Z,4.82
